createdAt,value
2022-10-11T00:00:11.554Z,76567.59
2022-10-11T00:02:38.624Z,76563.50
2022-10-11T00:05:05.949Z,76559.38
2022-10-11T00:07:33.120Z,76561.44
2022-10-11T00:10:00.197Z,76569.66
2022-10-11T00:12:27.524Z,76577.88
2022-10-11T00:14:54.532Z,76575.81
2022-10-11T00:17:21.554Z,76567.59
2022-10-11T00:19:49.138Z,76569.66
2022-10-11T00:22:16.231Z,76561.44
2022-10-11T00:24:43.311Z,76565.56
2022-10-11T00:27:10.426Z,76579.94
2022-10-11T00:29:37.945Z,76571.72
2022-10-11T00:32:05.133Z,76571.72
2022-10-11T00:34:33.032Z,76575.81
2022-10-11T00:37:00.134Z,76575.81
2022-10-11T00:39:27.323Z,76575.81
2022-10-11T00:41:54.534Z,76590.22
2022-10-11T00:44:22.675Z,76588.16
2022-10-11T00:46:55.689Z,76588.16
2022-10-11T00:49:32.551Z,76584.06
2022-10-11T00:52:03.406Z,76579.94
2022-10-11T00:54:31.056Z,76584.06
2022-10-11T00:56:59.591Z,76594.31
2022-10-11T00:59:28.194Z,76592.28
2022-10-11T01:01:55.465Z,76588.16
2022-10-11T01:04:22.879Z,76600.50
2022-10-11T01:06:51.002Z,76594.31
2022-10-11T01:09:19.128Z,76594.31
2022-10-11T01:11:49.817Z,76596.38
2022-10-11T01:14:25.506Z,76592.28
2022-10-11T01:16:54.843Z,76600.50
2022-10-11T01:19:40.316Z,76600.50
2022-10-11T01:22:23.505Z,76600.50
2022-10-11T01:24:59.658Z,76600.50
2022-10-11T01:27:29.509Z,76610.78
2022-10-11T01:30:14.835Z,76612.84
2022-10-11T01:33:00.867Z,76604.59
2022-10-11T01:35:29.852Z,76598.44
2022-10-11T01:38:01.934Z,76610.78
2022-10-11T01:40:31.656Z,76623.09
2022-10-11T01:42:58.797Z,76625.16
2022-10-11T01:45:25.809Z,76625.16
2022-10-11T01:48:03.357Z,76629.28
2022-10-11T01:50:33.871Z,76637.50
2022-10-11T01:53:04.043Z,76627.22
2022-10-11T01:55:35.134Z,76629.28
2022-10-11T01:58:05.383Z,76629.28
2022-10-11T02:00:35.129Z,76625.16
2022-10-11T02:03:05.041Z,76629.28
2022-10-11T02:05:47.860Z,76637.50
2022-10-11T02:08:17.930Z,76641.59
2022-10-11T02:10:46.766Z,76629.28
2022-10-11T02:13:24.315Z,76637.50
2022-10-11T02:15:51.353Z,76629.28
2022-10-11T02:18:20.799Z,76637.50
2022-10-11T02:20:48.000Z,76645.72
2022-10-11T02:23:20.708Z,76649.84
2022-10-11T02:25:47.898Z,76660.13
2022-10-11T02:28:16.182Z,76674.50
2022-10-11T02:30:44.253Z,76670.38
2022-10-11T02:33:11.719Z,76674.50
2022-10-11T02:35:42.014Z,76680.66
2022-10-11T02:38:28.032Z,76682.72
2022-10-11T02:40:56.593Z,76690.94
2022-10-11T02:43:26.056Z,76678.63
2022-10-11T02:45:54.273Z,76693.00
2022-10-11T02:48:21.337Z,76695.06
2022-10-11T02:50:48.368Z,76703.28
2022-10-11T02:53:15.595Z,76709.44
2022-10-11T02:55:42.596Z,76703.28
2022-10-11T02:58:09.641Z,76707.41
2022-10-11T03:00:37.425Z,76707.41
2022-10-11T03:03:04.584Z,76707.41
2022-10-11T03:05:35.496Z,76707.41
2022-10-11T03:08:02.973Z,76707.41
2022-10-11T03:10:30.075Z,76695.06
2022-10-11T03:12:57.964Z,76707.41
2022-10-11T03:15:25.039Z,76711.50
2022-10-11T03:17:53.310Z,76711.50
2022-10-11T03:20:20.376Z,76707.41
2022-10-11T03:22:47.441Z,76703.28
2022-10-11T03:25:14.451Z,76711.50
2022-10-11T03:27:42.423Z,76703.28
2022-10-11T03:30:12.504Z,76703.28
2022-10-11T03:32:41.290Z,76703.28
2022-10-11T03:35:08.746Z,76707.41
2022-10-11T03:37:35.794Z,76711.50
2022-10-11T03:40:03.476Z,76719.72
2022-10-11T03:42:30.577Z,76715.63
2022-10-11T03:44:59.761Z,76707.41
2022-10-11T03:47:26.777Z,76719.72
2022-10-11T03:49:53.828Z,76711.50
2022-10-11T03:52:20.953Z,76717.66
2022-10-11T03:54:49.177Z,76713.56
2022-10-11T03:57:16.206Z,76723.84
2022-10-11T03:59:43.801Z,76723.84
2022-10-11T04:02:10.958Z,76723.84
2022-10-11T04:04:38.163Z,76727.94
2022-10-11T04:07:05.459Z,76719.72
2022-10-11T04:09:32.672Z,76711.50
2022-10-11T04:12:03.030Z,76707.41
2022-10-11T04:14:33.546Z,76723.84
2022-10-11T04:17:01.145Z,76725.91
2022-10-11T04:19:28.241Z,76719.72
2022-10-11T04:21:55.278Z,76715.63
2022-10-11T04:24:22.298Z,76711.50
2022-10-11T04:26:49.348Z,76715.63
2022-10-11T04:29:16.419Z,76723.84
2022-10-11T04:31:44.016Z,76727.94
2022-10-11T04:34:11.056Z,76715.63
2022-10-11T04:36:39.143Z,76717.66
2022-10-11T04:39:06.503Z,76723.84
2022-10-11T04:41:33.631Z,76727.94
2022-10-11T04:44:01.002Z,76732.06
2022-10-11T04:46:28.145Z,76727.94
2022-10-11T04:48:55.757Z,76703.28
2022-10-11T04:51:22.881Z,76715.63
2022-10-11T04:53:49.919Z,76705.34
2022-10-11T04:56:18.509Z,76707.41
2022-10-11T04:58:47.890Z,76707.41
2022-10-11T05:01:16.120Z,76713.56
2022-10-11T05:03:43.212Z,76707.41
2022-10-11T05:06:10.558Z,76707.41
2022-10-11T05:08:38.625Z,76709.44
2022-10-11T05:11:07.838Z,76707.41
2022-10-11T05:13:35.092Z,76709.44
2022-10-11T05:16:05.784Z,76705.34
2022-10-11T05:18:35.860Z,76707.41
2022-10-11T05:21:03.353Z,76727.94
2022-10-11T05:23:31.377Z,76723.84
2022-10-11T05:25:58.653Z,76715.63
2022-10-11T05:28:26.603Z,76727.94
2022-10-11T05:30:54.260Z,76715.63
2022-10-11T05:33:21.303Z,76719.72
2022-10-11T05:35:48.386Z,76727.94
2022-10-11T05:38:16.563Z,76727.94
2022-10-11T05:40:43.860Z,76713.56
2022-10-11T05:43:11.175Z,76711.50
2022-10-11T05:45:38.502Z,76695.06
2022-10-11T05:48:05.917Z,76686.84
2022-10-11T05:50:33.898Z,76703.28
2022-10-11T05:53:01.730Z,76705.34
2022-10-11T05:55:28.776Z,76701.22
2022-10-11T05:57:56.047Z,76711.50
2022-10-11T06:00:23.386Z,76715.63
2022-10-11T06:02:50.519Z,76719.72
2022-10-11T06:05:18.091Z,76727.94
2022-10-11T06:07:45.670Z,76736.16
2022-10-11T06:10:15.986Z,76727.94
2022-10-11T06:12:43.082Z,76723.84
2022-10-11T06:15:11.381Z,76719.72
2022-10-11T06:17:38.430Z,76715.63
2022-10-11T06:20:07.498Z,76723.84
2022-10-11T06:22:34.797Z,76711.50
2022-10-11T06:25:01.971Z,76723.84
2022-10-11T06:27:30.202Z,76732.06
2022-10-11T06:29:57.287Z,76734.13
2022-10-11T06:32:24.367Z,76736.16
2022-10-11T06:34:51.955Z,76703.28
2022-10-11T06:37:19.137Z,76678.63
2022-10-11T06:39:47.970Z,76645.72
2022-10-11T06:42:15.013Z,76633.38
2022-10-11T06:44:42.037Z,76600.50
2022-10-11T06:47:09.343Z,76590.22
2022-10-11T06:49:36.815Z,76588.16
2022-10-11T06:52:04.065Z,76567.59
2022-10-11T06:54:31.258Z,76540.88
2022-10-11T06:56:58.449Z,76501.81
2022-10-11T06:59:25.660Z,76468.94
2022-10-11T07:01:52.690Z,76444.28
2022-10-11T07:04:19.829Z,76407.28
2022-10-11T07:06:48.174Z,76407.28
2022-10-11T07:09:15.407Z,76411.38
2022-10-11T07:11:47.834Z,76419.59
2022-10-11T07:14:15.267Z,76374.38
2022-10-11T07:16:46.034Z,76298.31
2022-10-11T07:19:13.229Z,76148.28
2022-10-11T07:21:40.531Z,76000.28
2022-10-11T07:24:07.668Z,75953.00
2022-10-11T07:26:38.595Z,76121.56
2022-10-11T07:29:07.126Z,76242.81
2022-10-11T07:31:34.912Z,76283.94
2022-10-11T07:34:02.037Z,76144.16
2022-10-11T07:36:29.402Z,76101.00
2022-10-11T07:38:56.447Z,76181.16
2022-10-11T07:41:23.505Z,76226.38
2022-10-11T07:43:51.275Z,76107.16
2022-10-11T07:46:18.469Z,76008.50
2022-10-11T07:48:50.140Z,75872.84
2022-10-11T07:51:18.152Z,75768.03
2022-10-11T07:53:45.866Z,75632.41
2022-10-11T07:56:13.666Z,75679.69
2022-10-11T07:58:41.185Z,75609.81
2022-10-11T08:01:08.523Z,75486.50
2022-10-11T08:03:36.632Z,75548.16
2022-10-11T08:06:04.549Z,75404.28
2022-10-11T08:08:32.066Z,75428.97
2022-10-11T08:11:03.194Z,75420.72
2022-10-11T08:13:30.370Z,75470.06
2022-10-11T08:15:57.514Z,75178.25
2022-10-11T08:18:24.742Z,75157.72
2022-10-11T08:20:51.825Z,75059.06
2022-10-11T08:23:19.229Z,75207.03
2022-10-11T08:25:46.973Z,75334.44
2022-10-11T08:28:17.893Z,75346.75
2022-10-11T08:30:52.295Z,75161.81
2022-10-11T08:33:19.390Z,75211.13
2022-10-11T08:35:46.565Z,75338.53
2022-10-11T08:38:13.617Z,75178.25
2022-10-11T08:40:53.944Z,75126.88
2022-10-11T08:43:33.387Z,75151.53
2022-10-11T08:46:01.125Z,75186.47
2022-10-11T08:48:38.767Z,75124.84
2022-10-11T08:51:08.732Z,75003.59
2022-10-11T08:53:56.368Z,74861.81
2022-10-11T08:56:23.458Z,74976.88
2022-10-11T08:58:55.621Z,75091.97
2022-10-11T09:01:26.291Z,74870.03
2022-10-11T09:03:53.597Z,74907.03
2022-10-11T09:06:24.029Z,75026.19
2022-10-11T09:08:57.570Z,75128.94
2022-10-11T09:11:45.668Z,75116.63
2022-10-11T09:14:32.515Z,75001.53
2022-10-11T09:17:06.410Z,75003.59
2022-10-11T09:19:42.724Z,75073.47
2022-10-11T09:22:15.630Z,74946.06
2022-10-11T09:24:53.338Z,74907.03
2022-10-11T09:27:50.194Z,74865.94
2022-10-11T09:30:17.519Z,74812.53
2022-10-11T09:32:51.890Z,74937.84
2022-10-11T09:35:19.898Z,74874.16
2022-10-11T09:38:00.969Z,74791.97
2022-10-11T09:40:45.073Z,74824.84
2022-10-11T09:43:12.188Z,74927.56
2022-10-11T09:45:49.237Z,74919.34
2022-10-11T09:48:18.482Z,75034.41
2022-10-11T09:50:45.595Z,74944.00
2022-10-11T09:53:12.682Z,74927.56
2022-10-11T09:55:46.923Z,74923.47
2022-10-11T09:58:22.819Z,74831.00
2022-10-11T10:00:56.813Z,74627.59
2022-10-11T10:03:31.045Z,74582.41
2022-10-11T10:06:09.158Z,74687.19
2022-10-11T10:08:38.295Z,75104.28
2022-10-11T10:11:06.120Z,75098.13
2022-10-11T10:13:43.970Z,75170.03
2022-10-11T10:16:19.812Z,75038.53
2022-10-11T10:18:51.765Z,74841.28
2022-10-11T10:21:19.460Z,74783.75
2022-10-11T10:23:46.531Z,74750.88
2022-10-11T10:26:17.878Z,74863.88
2022-10-11T10:28:56.592Z,74631.72
2022-10-11T10:31:25.496Z,74781.69
2022-10-11T10:33:53.235Z,74759.09
2022-10-11T10:36:22.325Z,74685.13
2022-10-11T10:38:52.213Z,74742.66
2022-10-11T10:41:19.614Z,74506.41
2022-10-11T10:43:52.248Z,74524.88
2022-10-11T10:46:34.587Z,74693.34
2022-10-11T10:49:48.787Z,74985.09
2022-10-11T10:52:17.037Z,74956.34
2022-10-11T10:55:02.844Z,75075.53
2022-10-11T10:57:42.265Z,75133.06
2022-10-11T11:00:15.319Z,75063.19
2022-10-11T11:02:57.312Z,74991.28
2022-10-11T11:05:43.845Z,75017.97
2022-10-11T11:08:29.824Z,75048.81
2022-10-11T11:10:59.856Z,74987.16
2022-10-11T11:13:45.527Z,74898.81
2022-10-11T11:16:19.046Z,74995.38
2022-10-11T11:18:46.107Z,75075.53
2022-10-11T11:21:30.248Z,75180.31
2022-10-11T11:24:07.003Z,75346.75
2022-10-11T11:26:41.972Z,75523.50
2022-10-11T11:29:24.244Z,75437.19
2022-10-11T11:31:57.976Z,75281.00
2022-10-11T11:34:38.550Z,75223.47
2022-10-11T11:37:06.810Z,75244.00
2022-10-11T11:39:39.433Z,75297.44
2022-10-11T11:42:17.700Z,75252.22
2022-10-11T11:44:48.399Z,75309.78
2022-10-11T11:47:20.853Z,75281.00
2022-10-11T11:50:01.741Z,75252.22
2022-10-11T11:52:29.656Z,75332.38
2022-10-11T11:55:03.761Z,75361.16
2022-10-11T11:57:35.757Z,75377.59
2022-10-11T12:00:07.786Z,75400.19
2022-10-11T12:02:47.254Z,75449.50
2022-10-11T12:05:15.841Z,75482.38
2022-10-11T12:07:48.968Z,75509.09
2022-10-11T12:10:23.806Z,75480.34
2022-10-11T12:13:03.049Z,75537.88
2022-10-11T12:15:30.367Z,75548.16
2022-10-11T12:17:57.674Z,75546.09
2022-10-11T12:20:27.769Z,75550.19
2022-10-11T12:23:00.461Z,75655.00
2022-10-11T12:25:28.736Z,75552.25
2022-10-11T12:27:56.352Z,75515.25
2022-10-11T12:30:42.265Z,75605.69
2022-10-11T12:33:15.301Z,75505.00
2022-10-11T12:35:54.869Z,75408.41
2022-10-11T12:38:29.351Z,75474.16
2022-10-11T12:41:02.932Z,75465.94
2022-10-11T12:43:32.481Z,75451.56
2022-10-11T12:46:19.299Z,75548.16
2022-10-11T12:48:51.342Z,75566.66
2022-10-11T12:51:24.549Z,75566.66
2022-10-11T12:54:14.428Z,75597.47
2022-10-11T12:56:57.221Z,75576.91
2022-10-11T12:59:24.278Z,75622.13
2022-10-11T13:01:52.090Z,75476.22
2022-10-11T13:04:25.554Z,75486.50
2022-10-11T13:06:56.948Z,75490.59
2022-10-11T13:09:29.544Z,75568.69
2022-10-11T13:12:04.124Z,75468.00
2022-10-11T13:14:35.967Z,75461.84
2022-10-11T13:17:03.967Z,75465.94
2022-10-11T13:19:31.803Z,75593.34
2022-10-11T13:22:00.217Z,75527.59
2022-10-11T13:24:27.966Z,75492.66
2022-10-11T13:26:55.555Z,75572.81
2022-10-11T13:29:33.835Z,75687.91
2022-10-11T13:32:01.438Z,75692.00
2022-10-11T13:34:32.963Z,75683.78
2022-10-11T13:37:02.356Z,75786.53
2022-10-11T13:39:31.525Z,75831.75
2022-10-11T13:42:00.199Z,75835.88
2022-10-11T13:44:27.471Z,75854.38
2022-10-11T13:46:54.581Z,75883.13
2022-10-11T13:49:24.647Z,75897.53
2022-10-11T13:52:01.595Z,75909.84
2022-10-11T13:54:48.765Z,75909.84
2022-10-11T13:57:15.843Z,75924.25
2022-10-11T13:59:43.045Z,75897.53
2022-10-11T14:02:21.493Z,75833.81
2022-10-11T14:04:49.087Z,75819.44
2022-10-11T14:07:26.673Z,75839.97
2022-10-11T14:09:53.896Z,75870.81
2022-10-11T14:12:33.553Z,75913.97
2022-10-11T14:15:00.874Z,75913.97
2022-10-11T14:17:34.313Z,75955.06
2022-10-11T14:20:13.553Z,76000.28
2022-10-11T14:22:40.696Z,76012.63
2022-10-11T14:25:07.774Z,76016.72
2022-10-11T14:27:35.223Z,76029.06
2022-10-11T14:32:51.893Z,76012.63
2022-10-11T14:35:19.284Z,76049.63
2022-10-11T14:37:46.508Z,76055.78
2022-10-11T14:40:14.966Z,76055.78
2022-10-11T14:42:42.083Z,76043.44
2022-10-11T14:45:10.888Z,76078.41
2022-10-11T14:47:42.792Z,76082.50
2022-10-11T14:50:18.805Z,76090.72
2022-10-11T14:52:46.661Z,76098.94
2022-10-11T14:55:13.668Z,76088.66
2022-10-11T14:57:40.698Z,76094.84
2022-10-11T15:00:15.254Z,76103.06
2022-10-11T15:02:42.613Z,76131.84
2022-10-11T15:05:09.894Z,76117.44
2022-10-11T15:07:36.998Z,76152.38
2022-10-11T15:10:06.399Z,76156.50
2022-10-11T15:12:33.906Z,76166.78
2022-10-11T15:15:01.564Z,76183.22
2022-10-11T15:17:28.704Z,76209.94
2022-10-11T15:19:55.779Z,76205.81
2022-10-11T15:22:22.790Z,76205.81
2022-10-11T15:24:51.770Z,76197.59
2022-10-11T15:27:18.965Z,76222.28
2022-10-11T15:29:47.018Z,76230.50
2022-10-11T15:32:14.625Z,76238.72
2022-10-11T15:34:42.388Z,76242.81
2022-10-11T15:37:09.466Z,76242.81
2022-10-11T15:39:37.203Z,76255.16
2022-10-11T15:42:04.385Z,76251.03
2022-10-11T15:44:31.694Z,76246.94
2022-10-11T15:46:59.038Z,76259.28
2022-10-11T15:49:26.191Z,76255.16
2022-10-11T15:51:53.329Z,76244.88
2022-10-11T15:54:20.440Z,76267.50
2022-10-11T15:56:47.535Z,76263.38
2022-10-11T15:59:14.572Z,76267.50
2022-10-11T16:01:41.736Z,76267.50
2022-10-11T16:04:09.395Z,76255.16
2022-10-11T16:06:36.948Z,76267.50
2022-10-11T16:09:04.061Z,76263.38
2022-10-11T16:11:31.131Z,76255.16
2022-10-11T16:14:00.137Z,76263.38
2022-10-11T16:16:27.190Z,76259.28
2022-10-11T16:18:54.656Z,76263.38
2022-10-11T16:21:23.593Z,76267.50
2022-10-11T16:23:50.709Z,76251.03
2022-10-11T16:26:17.771Z,76244.88
2022-10-11T16:28:44.905Z,76246.94
2022-10-11T16:31:13.774Z,76257.22
2022-10-11T16:33:45.908Z,76255.16
2022-10-11T16:36:32.918Z,76271.59
2022-10-11T16:39:00.446Z,76265.44
2022-10-11T16:41:27.911Z,76267.50
2022-10-11T16:43:55.112Z,76271.59
2022-10-11T16:46:22.407Z,76288.03
2022-10-11T16:48:49.442Z,76275.72
2022-10-11T16:51:18.072Z,76292.16
2022-10-11T16:53:45.124Z,76288.03
2022-10-11T16:56:12.184Z,76294.22
2022-10-11T16:58:39.352Z,76302.44
2022-10-11T17:01:10.225Z,76296.28
2022-10-11T17:03:37.487Z,76298.31
2022-10-11T17:06:05.370Z,76296.28
2022-10-11T17:08:32.728Z,76300.38
2022-10-11T17:11:00.405Z,76304.50
2022-10-11T17:13:27.447Z,76308.59
2022-10-11T17:15:54.865Z,76316.81
2022-10-11T17:18:25.633Z,76314.78
2022-10-11T17:21:12.976Z,76304.50
2022-10-11T17:23:40.304Z,76300.38
2022-10-11T17:26:11.447Z,76314.78
2022-10-11T17:28:38.949Z,76316.81
2022-10-11T17:31:07.823Z,76320.94
2022-10-11T17:33:35.431Z,76314.78
2022-10-11T17:36:02.606Z,76320.94
2022-10-11T17:38:29.961Z,76314.78
2022-10-11T17:41:00.590Z,76325.03
2022-10-11T17:43:27.773Z,76329.16
2022-10-11T17:45:58.493Z,76329.16
2022-10-11T17:48:28.805Z,76333.28
2022-10-11T17:50:56.403Z,76345.59
2022-10-11T17:53:23.476Z,76347.66
2022-10-11T17:55:50.512Z,76357.94
2022-10-11T17:58:17.888Z,76362.03
2022-10-11T18:00:45.010Z,76362.03
2022-10-11T18:03:12.465Z,76378.50
2022-10-11T18:05:41.896Z,76376.44
2022-10-11T18:08:09.851Z,76374.38
2022-10-11T18:10:37.002Z,76374.38
2022-10-11T18:13:06.782Z,76386.72
2022-10-11T18:15:37.167Z,76394.94
2022-10-11T18:18:07.096Z,76403.16
2022-10-11T18:20:34.145Z,76382.59
2022-10-11T18:23:01.256Z,76409.31
2022-10-11T18:25:28.508Z,76407.28
2022-10-11T18:27:55.536Z,76419.59
2022-10-11T18:30:22.612Z,76415.50
2022-10-11T18:32:49.642Z,76415.50
2022-10-11T18:35:19.761Z,76434.00
2022-10-11T18:37:47.136Z,76431.94
2022-10-11T18:40:14.434Z,76440.16
2022-10-11T18:42:42.157Z,76450.44
2022-10-11T18:45:09.538Z,76456.59
2022-10-11T18:47:36.601Z,76456.59
2022-10-11T18:50:03.785Z,76458.66
2022-10-11T18:52:31.074Z,76468.94
2022-10-11T18:54:58.654Z,76481.28
2022-10-11T18:57:26.682Z,76477.16
2022-10-11T18:59:53.800Z,76487.44
2022-10-11T19:02:20.940Z,76497.72
2022-10-11T19:04:52.650Z,76497.72
2022-10-11T19:07:20.015Z,76510.03
2022-10-11T19:09:47.206Z,76518.28
2022-10-11T19:12:15.167Z,76518.28
2022-10-11T19:14:42.408Z,76538.81
2022-10-11T19:17:12.389Z,76540.88
2022-10-11T19:19:39.497Z,76532.66
2022-10-11T19:22:06.959Z,76526.50
2022-10-11T19:24:35.109Z,76545.00
2022-10-11T19:27:03.126Z,76559.38
2022-10-11T19:29:31.623Z,76561.44
2022-10-11T19:31:59.362Z,76575.81
2022-10-11T19:34:27.533Z,76588.16
2022-10-11T19:36:55.074Z,76600.50
2022-10-11T19:39:22.386Z,76604.59
2022-10-11T19:41:49.467Z,76612.84
2022-10-11T19:44:17.464Z,76631.34
2022-10-11T19:46:52.633Z,76623.09
2022-10-11T19:49:24.910Z,76637.50
2022-10-11T19:51:52.586Z,76645.72
2022-10-11T19:54:19.918Z,76651.88
2022-10-11T19:56:47.424Z,76660.13
2022-10-11T19:59:14.759Z,76678.63
2022-10-11T20:01:41.915Z,76672.44
2022-10-11T20:04:15.469Z,76672.44
2022-10-11T20:06:54.998Z,76688.91
2022-10-11T20:09:29.512Z,76686.84
2022-10-11T20:11:56.961Z,76707.41
2022-10-11T20:14:25.103Z,76707.41
2022-10-11T20:16:52.587Z,76703.28
2022-10-11T20:19:19.757Z,76699.16
2022-10-11T20:21:48.296Z,76707.41
2022-10-11T20:24:15.417Z,76736.16
2022-10-11T20:26:42.454Z,76736.16
2022-10-11T20:29:09.561Z,76746.44
2022-10-11T20:31:41.796Z,76748.50
2022-10-11T20:34:09.468Z,76748.50
2022-10-11T20:36:37.004Z,76748.50
2022-10-11T20:39:04.695Z,76748.50
2022-10-11T20:41:32.676Z,76748.50
2022-10-11T20:44:01.159Z,76764.97
2022-10-11T20:46:32.641Z,76764.97
2022-10-11T20:49:02.082Z,76781.41
2022-10-11T20:51:29.883Z,76785.50
2022-10-11T20:53:57.037Z,76801.97
2022-10-11T20:56:24.332Z,76804.00
2022-10-11T20:58:52.628Z,76795.78
2022-10-11T21:01:20.954Z,76810.19
2022-10-11T21:03:48.048Z,76801.97
2022-10-11T21:06:20.587Z,76810.19
2022-10-11T21:08:47.623Z,76836.91
2022-10-11T21:11:14.908Z,76836.91
2022-10-11T21:13:42.853Z,76836.91
2022-10-11T21:16:11.440Z,76838.97
2022-10-11T21:18:38.876Z,76836.91
2022-10-11T21:21:10.016Z,76847.19
2022-10-11T21:23:37.410Z,76847.19
2022-10-11T21:26:05.198Z,76847.19
2022-10-11T21:28:32.421Z,76855.41
2022-10-11T21:31:03.750Z,76867.75
2022-10-11T21:33:31.638Z,76859.53
2022-10-11T21:35:58.722Z,76875.97
2022-10-11T21:38:25.805Z,76863.63
2022-10-11T21:40:52.930Z,76869.81
2022-10-11T21:43:19.974Z,76884.19
2022-10-11T21:45:47.085Z,76898.59
2022-10-11T21:48:14.131Z,76896.53
2022-10-11T21:50:41.252Z,76892.41
2022-10-11T21:53:08.388Z,76912.97
2022-10-11T21:55:35.430Z,76908.88
2022-10-11T21:58:03.088Z,76912.97
2022-10-11T22:00:30.150Z,76917.09
2022-10-11T22:02:57.286Z,76919.16
2022-10-11T22:05:24.402Z,76929.41
2022-10-11T22:07:53.188Z,76933.53
2022-10-11T22:10:22.021Z,76945.88
2022-10-11T22:12:49.147Z,76954.09
2022-10-11T22:15:17.189Z,76943.81
2022-10-11T22:17:45.615Z,76933.53
2022-10-11T22:20:12.742Z,76929.41
2022-10-11T22:22:39.815Z,76966.44
2022-10-11T22:25:07.206Z,76978.75
2022-10-11T22:27:35.147Z,76978.75
2022-10-11T22:30:02.250Z,76976.72
2022-10-11T22:32:30.494Z,76980.81
2022-10-11T22:34:57.534Z,76987.00
2022-10-11T22:37:24.577Z,76980.81
2022-10-11T22:39:51.590Z,76987.00
2022-10-11T22:42:18.816Z,76991.09
2022-10-11T22:44:46.385Z,76991.09
2022-10-11T22:47:13.424Z,77007.53
2022-10-11T22:49:40.505Z,77017.81
2022-10-11T22:52:07.649Z,77030.16
2022-10-11T22:54:34.947Z,77032.22
2022-10-11T22:57:02.011Z,77048.66
2022-10-11T22:59:29.365Z,77040.44
2022-10-11T23:01:56.388Z,77040.44
2022-10-11T23:04:26.451Z,77048.66
2022-10-11T23:06:53.593Z,77056.88
2022-10-11T23:09:28.763Z,77069.22
2022-10-11T23:11:55.856Z,77077.44
2022-10-11T23:14:22.880Z,77071.28
2022-10-11T23:16:50.842Z,77085.66
2022-10-11T23:19:18.825Z,77089.78
2022-10-11T23:21:45.937Z,77095.94
2022-10-11T23:24:13.505Z,77089.78
2022-10-11T23:26:41.275Z,77077.44
2022-10-11T23:29:08.283Z,77075.38
2022-10-11T23:31:37.062Z,77069.22
2022-10-11T23:34:04.084Z,77089.78
2022-10-11T23:36:31.186Z,77081.56
2022-10-11T23:38:58.377Z,77106.22
2022-10-11T23:41:26.194Z,77116.50
2022-10-11T23:43:53.232Z,77118.56
2022-10-11T23:46:20.287Z,77126.78
2022-10-11T23:48:48.637Z,77139.13
2022-10-11T23:51:15.759Z,77139.13
2022-10-11T23:53:44.460Z,77135.03
2022-10-11T23:56:11.554Z,77135.03
2022-10-11T23:58:38.835Z,77139.13
